createdAt,value
2024-01-10T00:03:12.596Z,-12.61
2024-01-10T00:08:17.812Z,-12.57
2024-01-10T00:14:19.842Z,-12.70
2024-01-10T00:19:42.107Z,-13.34
2024-01-10T00:24:45.780Z,-13.46
2024-01-10T00:29:47.731Z,-13.34
2024-01-10T00:34:50.119Z,-13.45
2024-01-10T00:39:52.367Z,-13.50
2024-01-10T00:44:54.671Z,-13.51
2024-01-10T00:49:56.926Z,-13.60
2024-01-10T00:54:59.216Z,-13.91
2024-01-10T01:00:01.633Z,-14.09
2024-01-10T01:05:04.326Z,-13.98
2024-01-10T01:10:07.293Z,-13.83
2024-01-10T01:15:09.728Z,-13.78
2024-01-10T01:20:11.952Z,-13.79
2024-01-10T01:25:14.324Z,-13.80
2024-01-10T01:30:16.707Z,-13.71
2024-01-10T01:35:23.140Z,-13.68
2024-01-10T01:40:25.331Z,-13.66
2024-01-10T01:45:27.524Z,-13.61
2024-01-10T01:50:30.174Z,-13.57
2024-01-10T01:55:32.278Z,-13.53
2024-01-10T02:00:35.262Z,-13.56
2024-01-10T02:05:38.549Z,-13.63
2024-01-10T02:10:40.979Z,-13.63
2024-01-10T02:15:43.125Z,-13.79
2024-01-10T02:20:49.002Z,-14.02
2024-01-10T02:25:51.376Z,-14.11
2024-01-10T02:30:55.828Z,-14.09
2024-01-10T02:35:58.289Z,-14.09
2024-01-10T02:41:02.044Z,-14.17
2024-01-10T02:46:07.187Z,-14.18
2024-01-10T02:51:09.242Z,-14.04
2024-01-10T02:56:11.739Z,-14.01
2024-01-10T03:02:13.630Z,-13.94
2024-01-10T03:08:23.310Z,-13.88
2024-01-10T03:13:25.534Z,-13.77
2024-01-10T03:18:27.866Z,-13.99
2024-01-10T03:23:30.125Z,-13.93
2024-01-10T03:28:47.874Z,-13.74
2024-01-10T03:33:57.597Z,-13.67
2024-01-10T03:39:00.549Z,-13.75
2024-01-10T03:45:02.673Z,-13.84
2024-01-10T03:50:51.629Z,-13.72
2024-01-10T03:55:53.750Z,-13.64
2024-01-10T04:01:18.667Z,-13.48
2024-01-10T04:07:20.536Z,-13.46
2024-01-10T04:12:42.760Z,-13.63
2024-01-10T04:17:45.123Z,-13.81
2024-01-10T04:22:47.299Z,-13.99
2024-01-10T04:27:51.520Z,-14.06
2024-01-10T04:32:53.685Z,-14.17
2024-01-10T04:37:55.888Z,-14.32
2024-01-10T04:42:58.265Z,-14.40
2024-01-10T04:48:03.432Z,-14.53
2024-01-10T04:53:05.728Z,-14.48
2024-01-10T04:58:10.121Z,-14.41
2024-01-10T05:03:18.151Z,-14.18
2024-01-10T05:08:22.328Z,-14.03
2024-01-10T05:13:30.141Z,-14.10
2024-01-10T05:18:39.174Z,-14.14
2024-01-10T05:23:41.661Z,-14.20
2024-01-10T05:28:43.865Z,-14.25
2024-01-10T05:33:46.192Z,-14.20
2024-01-10T05:39:48.090Z,-14.13
2024-01-10T05:45:10.543Z,-14.18
2024-01-10T05:50:12.897Z,-14.46
2024-01-10T05:55:15.172Z,-14.30
2024-01-10T06:00:24.546Z,-14.32
2024-01-10T06:05:29.412Z,-14.60
2024-01-10T06:10:37.266Z,-14.53
2024-01-10T06:16:08.274Z,-14.41
2024-01-10T06:21:30.344Z,-14.30
2024-01-10T06:26:34.836Z,-14.25
2024-01-10T06:32:36.864Z,-14.26
2024-01-10T06:38:13.786Z,-14.16
2024-01-10T06:43:16.309Z,-14.12
2024-01-10T06:48:20.305Z,-14.18
2024-01-10T06:53:23.684Z,-14.23
2024-01-10T06:58:26.039Z,-14.22
2024-01-10T07:03:28.493Z,-14.01
2024-01-10T07:08:32.138Z,-13.66
2024-01-10T07:13:34.485Z,-13.54
2024-01-10T07:18:37.737Z,-13.05
2024-01-10T07:23:42.431Z,-12.34
2024-01-10T07:28:44.873Z,-11.72
2024-01-10T07:33:47.817Z,-11.37
2024-01-10T07:38:50.099Z,-11.05
2024-01-10T07:43:52.402Z,-10.29
2024-01-10T07:48:54.714Z,-9.62
2024-01-10T07:54:05.609Z,-9.07
2024-01-10T07:59:07.946Z,-8.28
2024-01-10T08:04:17.589Z,-7.71
2024-01-10T08:09:38.770Z,-6.91
2024-01-10T08:15:01.054Z,-6.39
2024-01-10T08:20:07.734Z,-6.10
2024-01-10T08:25:17.454Z,-5.92
2024-01-10T08:30:42.508Z,-5.57
2024-01-10T08:35:47.451Z,-5.43
2024-01-10T08:40:50.344Z,-5.10
2024-01-10T08:45:59.200Z,-4.29
2024-01-10T08:51:04.441Z,-3.72
2024-01-10T08:56:07.491Z,-3.36
2024-01-10T09:01:12.291Z,-3.24
2024-01-10T09:06:14.770Z,-3.45
2024-01-10T09:11:17.192Z,-3.57
2024-01-10T09:16:40.269Z,-3.73
2024-01-10T09:22:22.742Z,-3.41
2024-01-10T09:27:33.232Z,-3.33
2024-01-10T09:32:44.424Z,-3.48
2024-01-10T09:37:46.716Z,-3.54
2024-01-10T09:42:52.538Z,-3.40
2024-01-10T09:48:00.308Z,-3.31
2024-01-10T09:53:08.945Z,-3.09
2024-01-10T09:58:11.787Z,-2.68
2024-01-10T10:03:15.660Z,-2.22
2024-01-10T10:08:23.890Z,-1.87
2024-01-10T10:13:28.052Z,-1.29
2024-01-10T10:18:31.473Z,-0.35
2024-01-10T10:23:34.371Z,0.16
2024-01-10T10:28:36.651Z,0.36
2024-01-10T10:33:39.086Z,0.32
2024-01-10T10:38:41.678Z,0.55
2024-01-10T10:43:43.869Z,0.47
2024-01-10T10:48:46.284Z,0.80
2024-01-10T10:53:49.611Z,1.15
2024-01-10T10:58:52.756Z,1.15
2024-01-10T11:03:55.326Z,0.96
2024-01-10T11:09:12.663Z,0.87
2024-01-10T11:14:23.985Z,0.84
2024-01-10T11:20:00.999Z,1.06
2024-01-10T11:25:03.469Z,1.23
2024-01-10T11:30:07.269Z,1.47
2024-01-10T11:35:22.083Z,1.37
2024-01-10T11:40:50.160Z,1.26
2024-01-10T11:45:58.630Z,1.17
2024-01-10T11:51:02.171Z,1.52
2024-01-10T12:11:13.053Z,1.96
2024-01-10T12:16:15.958Z,2.10
2024-01-10T12:21:19.073Z,1.82
2024-01-10T12:26:21.349Z,1.82
2024-01-10T12:31:27.258Z,1.88
2024-01-10T12:36:29.560Z,1.53
2024-01-10T12:41:32.708Z,1.77
2024-01-10T12:46:35.196Z,1.88
2024-01-10T12:51:40.498Z,1.78
2024-01-10T12:56:43.129Z,1.78
2024-01-10T13:02:05.013Z,1.97
2024-01-10T13:07:10.173Z,1.98
2024-01-10T13:12:15.025Z,1.95
2024-01-10T13:17:19.783Z,1.67
2024-01-10T13:22:22.470Z,1.31
2024-01-10T13:27:25.648Z,0.91
2024-01-10T13:32:30.228Z,0.96
2024-01-10T13:37:33.761Z,0.93
2024-01-10T13:42:35.865Z,0.87
2024-01-10T13:47:39.737Z,0.78
2024-01-10T13:52:47.462Z,0.70
2024-01-10T13:57:54.380Z,0.56
2024-01-10T14:04:16.585Z,0.38
2024-01-10T14:09:55.727Z,0.17
2024-01-10T14:14:59.678Z,0.07
2024-01-10T14:20:03.359Z,-0.11
2024-01-10T14:25:07.079Z,-0.35
2024-01-10T14:30:10.129Z,-0.63
2024-01-10T14:35:12.959Z,-0.91
2024-01-10T14:40:15.673Z,-1.10
2024-01-10T14:45:17.798Z,-1.20
2024-01-10T14:50:20.773Z,-1.46
2024-01-10T14:55:22.905Z,-1.82
2024-01-10T15:00:25.246Z,-2.24
2024-01-10T15:05:28.154Z,-2.65
2024-01-10T15:10:30.394Z,-2.94
2024-01-10T15:15:34.136Z,-3.18
2024-01-10T15:20:36.804Z,-3.33
2024-01-10T15:25:39.676Z,-3.44
2024-01-10T15:30:47.859Z,-3.57
2024-01-10T15:35:51.727Z,-3.66
2024-01-10T15:40:54.833Z,-3.78
2024-01-10T15:45:56.920Z,-3.87
2024-01-10T15:50:59.555Z,-3.98
2024-01-10T15:56:01.778Z,-4.09
2024-01-10T16:01:04.808Z,-4.19
2024-01-10T16:06:07.739Z,-4.30
2024-01-10T16:12:09.985Z,-4.42
2024-01-10T16:17:33.150Z,-4.62
2024-01-10T16:22:35.381Z,-4.74
2024-01-10T16:27:37.912Z,-4.85
2024-01-10T16:32:40.955Z,-4.95
2024-01-10T16:37:43.407Z,-5.08
2024-01-10T16:42:46.404Z,-5.22
2024-01-10T16:47:50.123Z,-5.34
2024-01-10T16:53:02.574Z,-5.39
2024-01-10T16:58:04.857Z,-5.44
2024-01-10T17:03:08.452Z,-5.49
2024-01-10T17:08:15.764Z,-5.57
2024-01-10T17:13:18.233Z,-5.67
2024-01-10T17:18:20.815Z,-5.81
2024-01-10T17:23:25.892Z,-5.92
2024-01-10T17:28:28.962Z,-5.99
2024-01-10T17:33:31.384Z,-6.06
2024-01-10T17:38:33.604Z,-6.09
2024-01-10T17:43:36.125Z,-6.13
2024-01-10T17:48:38.487Z,-6.18
2024-01-10T17:53:41.025Z,-6.19
2024-01-10T17:58:43.946Z,-6.28
2024-01-10T18:03:47.203Z,-6.44
2024-01-10T18:08:50.906Z,-6.55
2024-01-10T18:13:53.673Z,-6.70
2024-01-10T18:18:56.373Z,-6.91
2024-01-10T18:23:59.379Z,-7.11
2024-01-10T18:29:02.080Z,-7.25
2024-01-10T18:34:04.722Z,-7.32
2024-01-10T18:39:14.164Z,-7.32
2024-01-10T18:44:16.601Z,-7.29
2024-01-10T18:49:18.910Z,-7.20
2024-01-10T18:54:24.098Z,-7.13
2024-01-10T18:59:28.207Z,-7.18
2024-01-10T19:04:31.200Z,-7.25
2024-01-10T19:09:33.768Z,-7.30
2024-01-10T19:14:37.111Z,-7.36
2024-01-10T19:20:39.032Z,-7.41
2024-01-10T19:26:01.411Z,-7.40
2024-01-10T19:31:04.373Z,-7.35
2024-01-10T19:36:08.150Z,-7.39
2024-01-10T19:41:19.895Z,-7.42
2024-01-10T19:47:21.846Z,-7.43
2024-01-10T19:52:44.382Z,-7.44
2024-01-10T19:57:46.939Z,-7.47
2024-01-10T20:02:50.120Z,-7.52
2024-01-10T20:07:54.626Z,-7.49
2024-01-10T20:12:57.031Z,-7.42
2024-01-10T20:18:00.831Z,-7.31
2024-01-10T20:24:02.709Z,-7.27
2024-01-10T20:30:24.887Z,-7.37
2024-01-10T20:35:47.058Z,-7.67
2024-01-10T20:41:51.688Z,-7.86
2024-01-10T20:48:14.836Z,-7.95
2024-01-10T20:54:39.470Z,-7.94
2024-01-10T21:01:02.655Z,-7.91
2024-01-10T21:06:26.538Z,-7.93
2024-01-10T21:12:28.497Z,-8.00
2024-01-10T21:18:51.417Z,-8.08
2024-01-10T21:24:50.476Z,-8.19
2024-01-10T21:29:55.939Z,-8.18
2024-01-10T21:34:58.547Z,-8.13
2024-01-10T21:40:01.066Z,-8.06
2024-01-10T21:45:03.574Z,-8.06
2024-01-10T21:50:06.238Z,-8.09
2024-01-10T21:55:09.007Z,-7.98
2024-01-10T22:00:32.818Z,-7.85
2024-01-10T22:05:35.102Z,-7.79
2024-01-10T22:10:38.163Z,-7.80
2024-01-10T22:15:40.312Z,-7.87
2024-01-10T22:20:45.818Z,-7.98
2024-01-10T22:25:48.501Z,-8.15
2024-01-10T22:30:51.714Z,-8.33
2024-01-10T22:35:54.219Z,-8.53
2024-01-10T22:40:57.060Z,-8.66
2024-01-10T22:46:02.510Z,-8.72
2024-01-10T22:51:04.970Z,-8.76
2024-01-10T22:56:07.327Z,-8.81
2024-01-10T23:01:09.851Z,-8.76
2024-01-10T23:06:12.196Z,-8.71
2024-01-10T23:11:15.028Z,-8.67
2024-01-10T23:16:17.094Z,-8.63
2024-01-10T23:21:19.685Z,-8.61
2024-01-10T23:26:22.042Z,-8.60
2024-01-10T23:32:04.390Z,-8.60
2024-01-10T23:37:10.162Z,-8.61
2024-01-10T23:42:12.360Z,-8.68
2024-01-10T23:47:14.475Z,-8.75
2024-01-10T23:52:16.647Z,-8.78
2024-01-10T23:57:37.969Z,-8.78
